»·PEaware :: N360BG KLAS-KGTF

N360BG :: KLAS-KGTF

FLIGHT INFORMATION

Flight Status: Arrived
Operator: Privately registered:
United States
More flights under this callsign
Pilot: Brandon G. (13)
Aircraft: BOEING 757-200
(B752)
More flights by this aircraft type
Origin: KLAS McCarran Intl
United States
Destination: KGTF Great Falls Intl
United States
More flights between these airports :: More routes between these airports
Route: STAAV8 MLF J9 GTF
File this flight plan on PilotEdge
Remarks:
Altitude:
(Current/Filed)
41,000ft
Speed:
(Current/Filed)
425kts
Departed: 15-Sep-17 02:34 PM
Arrived: 15-Sep-17 04:21 PM
Distance/Time
Traveled:
705nm/1:46
Distance/Time
To Go:
Arrived

Flight Plot

Page will automatically refresh every two minutes.

Flight plan parsing failed; only flown route is shown


Map Options




Map Legend


Flown Route
Filed Route
Departure Airport
Arrival Airport
Navaid (VOR, NDB)
Fix

Horizontal Profiles

Position Reports

Time Latitude Longitude Heading Altitude Ground
Speed
15-Sep-17 13:16 36.098413 -115.160534 113 2107ft 0kts
15-Sep-17 13:17 36.098413 -115.160534 113 2107ft 0kts
15-Sep-17 13:18 36.098413 -115.160534 113 2107ft 0kts
15-Sep-17 13:19 36.098413 -115.160534 113 2107ft 0kts
15-Sep-17 13:20 36.098413 -115.160534 113 2107ft 0kts
15-Sep-17 13:21 36.098413 -115.160534 113 2107ft 0kts
15-Sep-17 13:22 36.098413 -115.160534 113 2107ft 0kts
15-Sep-17 13:23 36.098413 -115.160534 113 2107ft 0kts
15-Sep-17 13:24 36.098413 -115.160534 113 2107ft 0kts
15-Sep-17 13:25 36.098413 -115.160534 113 2107ft 0kts
15-Sep-17 13:26 36.098413 -115.160534 113 2107ft 0kts
15-Sep-17 13:27 36.098413 -115.160534 113 2107ft 0kts
15-Sep-17 13:28 36.098413 -115.160534 113 2107ft 0kts
15-Sep-17 13:29 36.098413 -115.160534 113 2107ft 0kts
15-Sep-17 13:30 36.098413 -115.160534 113 2107ft 0kts
15-Sep-17 13:31 36.098413 -115.160534 113 2107ft 0kts
15-Sep-17 13:32 36.098413 -115.160534 113 2107ft 0kts
15-Sep-17 13:33 36.098413 -115.160534 113 2107ft 0kts
15-Sep-17 13:34 36.098413 -115.160534 113 2107ft 0kts
15-Sep-17 13:35 36.098413 -115.160534 113 2107ft 0kts
15-Sep-17 13:36 36.098413 -115.160534 113 2107ft 0kts
15-Sep-17 13:37 36.098413 -115.160534 113 2107ft 0kts
15-Sep-17 13:38 36.098413 -115.160534 113 2107ft 0kts
15-Sep-17 13:39 36.098413 -115.160534 113 2107ft 0kts
15-Sep-17 13:40 36.098413 -115.160534 113 2107ft 0kts
15-Sep-17 13:41 36.098413 -115.160534 113 2107ft 0kts
15-Sep-17 13:42 36.098413 -115.160534 113 2107ft 0kts
15-Sep-17 13:43 36.098413 -115.160534 113 2107ft 0kts
15-Sep-17 13:44 36.098413 -115.160534 113 2107ft 0kts
15-Sep-17 13:45 36.098413 -115.160534 113 2107ft 0kts
15-Sep-17 13:46 36.098413 -115.160534 113 2107ft 0kts
15-Sep-17 13:47 36.098413 -115.160534 113 2107ft 0kts
15-Sep-17 13:48 36.098413 -115.160534 113 2107ft 0kts
15-Sep-17 13:49 36.098413 -115.160534 113 2107ft 0kts
15-Sep-17 13:50 36.098413 -115.160534 113 2107ft 0kts
15-Sep-17 13:51 36.098413 -115.160534 113 2107ft 0kts
15-Sep-17 13:52 36.098413 -115.160534 113 2107ft 0kts
15-Sep-17 13:53 36.098413 -115.160534 113 2107ft 0kts
15-Sep-17 13:54 36.098413 -115.160534 113 2107ft 0kts
15-Sep-17 13:55 36.098413 -115.160534 113 2107ft 0kts
15-Sep-17 13:56 36.098413 -115.160534 113 2107ft 0kts
15-Sep-17 13:57 36.098413 -115.160534 113 2107ft 0kts
15-Sep-17 13:58 36.098413 -115.160534 113 2107ft 0kts
15-Sep-17 13:59 36.098413 -115.160534 113 2107ft 0kts
15-Sep-17 14:00 36.098413 -115.160534 113 2107ft 0kts
15-Sep-17 14:01 36.098413 -115.160534 113 2107ft 0kts
15-Sep-17 14:02 36.098413 -115.160534 113 2107ft 0kts
15-Sep-17 14:03 36.098413 -115.160534 113 2107ft 0kts
15-Sep-17 14:04 36.098413 -115.160534 113 2107ft 0kts
15-Sep-17 14:05 36.098413 -115.160534 113 2107ft 0kts
15-Sep-17 14:06 36.098413 -115.160534 113 2107ft 0kts
15-Sep-17 14:07 36.098413 -115.160534 113 2107ft 0kts
15-Sep-17 14:08 36.098413 -115.160534 113 2107ft 0kts
15-Sep-17 14:09 36.098413 -115.160534 113 2107ft 0kts
15-Sep-17 14:10 36.098413 -115.160534 113 2107ft 0kts
15-Sep-17 14:11 36.098413 -115.160534 113 2107ft 0kts
15-Sep-17 14:12 36.098413 -115.160534 113 2107ft 0kts
15-Sep-17 14:13 36.098413 -115.160534 113 2107ft 0kts
15-Sep-17 14:14 36.098413 -115.160534 113 2107ft 0kts
15-Sep-17 14:15 36.098413 -115.160534 113 2107ft 0kts
15-Sep-17 14:16 36.098411 -115.160526 113 2107ft 0kts
15-Sep-17 14:17 36.098411 -115.160526 113 2107ft 0kts
15-Sep-17 14:18 36.098411 -115.160526 113 2107ft 0kts
15-Sep-17 14:19 36.098411 -115.160526 113 2107ft 0kts
15-Sep-17 14:20 36.098411 -115.160526 113 2107ft 0kts
15-Sep-17 14:21 36.098411 -115.160526 113 2107ft 0kts
15-Sep-17 14:22 36.098411 -115.160526 113 2107ft 0kts
15-Sep-17 14:23 36.098411 -115.160526 113 2107ft 0kts
15-Sep-17 14:24 36.098411 -115.160526 113 2107ft 0kts
15-Sep-17 14:25 36.098411 -115.160526 113 2107ft 0kts
15-Sep-17 14:26 36.098407 -115.160516 115 2107ft 1kts
15-Sep-17 14:27 36.098342 -115.160457 151 2106ft 0kts
15-Sep-17 14:28 36.097737 -115.160135 174 2105ft 9kts
15-Sep-17 14:29 36.095460 -115.161233 207 2112ft 9kts
15-Sep-17 14:30 36.093235 -115.158248 114 2108ft 23kts
15-Sep-17 14:31 36.088512 -115.156950 206 2115ft 18kts
15-Sep-17 14:32 36.085078 -115.156957 154 2125ft 14kts
15-Sep-17 14:33 36.080010 -115.154032 154 2127ft 23kts
15-Sep-17 14:34 36.077716 -115.146029 94 2103ft 34kts
15-Sep-17 14:35 36.077519 -115.132390 89 2060ft 36kts
15-Sep-17 14:36 36.077546 -115.121820 111 2041ft 7kts
15-Sep-17 14:37 36.076750 -115.121287 190 2042ft 9kts
15-Sep-17 14:38 36.076415 -115.151680 268 2989ft 171kts
15-Sep-17 14:39 36.073157 -115.220036 269 5342ft 248kts
15-Sep-17 14:40 36.093375 -115.292562 339 9866ft 251kts
15-Sep-17 14:41 36.158595 -115.278906 43 13701ft 273kts
15-Sep-17 14:42 36.194647 -115.182643 79 15535ft 362kts
15-Sep-17 14:43 36.196515 -115.045504 89 17909ft 423kts
15-Sep-17 14:44 36.197417 -114.897144 87 21132ft 444kts
15-Sep-17 14:45 36.236463 -114.757430 48 23920ft 451kts
15-Sep-17 14:46 36.332097 -114.657801 31 26317ft 462kts
15-Sep-17 14:47 36.435561 -114.560076 30 28561ft 478kts
15-Sep-17 14:48 36.542781 -114.458254 29 30573ft 493kts
15-Sep-17 14:49 36.658631 -114.368833 24 32785ft 492kts
15-Sep-17 14:50 36.771463 -114.281085 25 35133ft 487kts
15-Sep-17 14:51 36.885717 -114.191822 25 37000ft 489kts
15-Sep-17 14:52 37.000011 -114.102649 24 38727ft 488kts
15-Sep-17 14:53 37.113415 -114.014453 25 40169ft 492kts
15-Sep-17 14:54 37.229129 -113.922336 26 40888ft 493kts
15-Sep-17 14:55 37.344524 -113.831201 25 40899ft 493kts
15-Sep-17 14:56 37.460036 -113.740050 26 40901ft 494kts
15-Sep-17 14:57 37.575879 -113.648018 26 40922ft 495kts
15-Sep-17 14:58 37.691406 -113.555691 26 41049ft 495kts
15-Sep-17 14:59 37.806156 -113.463183 26 41051ft 494kts
15-Sep-17 15:00 37.921469 -113.370268 26 41053ft 494kts
15-Sep-17 15:01 38.034060 -113.279605 27 41041ft 494kts
15-Sep-17 15:02 38.147891 -113.187730 27 41014ft 498kts
15-Sep-17 15:03 38.263985 -113.093875 27 40997ft 497kts
15-Sep-17 15:04 38.381801 -113.004497 18 41002ft 489kts
15-Sep-17 15:05 38.506323 -112.936687 17 41000ft 489kts
15-Sep-17 15:06 38.631004 -112.868700 17 41002ft 489kts
15-Sep-17 15:07 38.755610 -112.800531 18 41002ft 489kts
15-Sep-17 15:08 38.880292 -112.732082 18 41022ft 492kts
15-Sep-17 15:09 39.004844 -112.663399 18 41029ft 491kts
15-Sep-17 15:10 39.126067 -112.596316 18 41028ft 491kts
15-Sep-17 15:11 39.250566 -112.527168 18 41030ft 491kts
15-Sep-17 15:12 39.374057 -112.458316 19 41029ft 490kts
15-Sep-17 15:13 39.498336 -112.388737 19 41033ft 491kts
15-Sep-17 15:14 39.620152 -112.320283 19 41024ft 491kts
15-Sep-17 15:15 39.744668 -112.250030 19 41023ft 491kts
15-Sep-17 15:16 39.868539 -112.179885 20 41031ft 492kts
15-Sep-17 15:17 39.992547 -112.107879 21 41037ft 493kts
15-Sep-17 15:18 40.110072 -112.038483 21 41036ft 492kts
15-Sep-17 15:19 40.234292 -111.966017 16 41034ft 491kts
15-Sep-17 15:20 40.365914 -111.949515 353 41043ft 478kts
15-Sep-17 15:21 40.497671 -111.957945 352 41036ft 478kts
15-Sep-17 15:22 40.629261 -111.967283 352 41037ft 477kts
15-Sep-17 15:23 40.760328 -111.976735 352 41019ft 478kts
15-Sep-17 15:24 40.892604 -111.986218 353 41020ft 478kts
15-Sep-17 15:25 41.024172 -111.994901 353 41030ft 478kts
15-Sep-17 15:26 41.150591 -112.003462 352 41025ft 478kts
15-Sep-17 15:27 41.281639 -112.012452 353 41016ft 480kts
15-Sep-17 15:28 41.413422 -112.021180 353 41017ft 480kts
15-Sep-17 15:29 41.545863 -112.031630 352 41018ft 479kts
15-Sep-17 15:30 41.677831 -112.041732 353 41012ft 480kts
15-Sep-17 15:31 41.809665 -112.049355 354 41011ft 481kts
15-Sep-17 15:32 41.941899 -112.059739 353 41011ft 480kts
15-Sep-17 15:33 42.074075 -112.069154 353 41012ft 481kts
15-Sep-17 15:34 42.203124 -112.076523 354 41007ft 481kts
15-Sep-17 15:35 42.335720 -112.084824 353 41007ft 481kts
15-Sep-17 15:36 42.468169 -112.093970 353 40999ft 481kts
15-Sep-17 15:37 42.601162 -112.104309 353 41000ft 481kts
15-Sep-17 15:38 42.733665 -112.113996 353 41000ft 481kts
15-Sep-17 15:39 42.866390 -112.122655 354 41001ft 482kts
15-Sep-17 15:40 42.998214 -112.131542 354 41002ft 482kts
15-Sep-17 15:41 43.128103 -112.141298 352 40997ft 481kts
15-Sep-17 15:42 43.237825 -112.151026 353 41025ft 482kts
15-Sep-17 15:43 43.392826 -112.161317 354 41026ft 483kts
15-Sep-17 15:44 43.525974 -112.169998 354 41026ft 483kts
15-Sep-17 15:45 43.658521 -112.181125 353 41027ft 483kts
15-Sep-17 15:46 43.791408 -112.191568 354 41028ft 484kts
15-Sep-17 15:47 43.902768 -112.199813 354 41029ft 484kts
15-Sep-17 15:48 44.035791 -112.209638 354 41030ft 484kts
15-Sep-17 15:49 44.163183 -112.235229 345 41025ft 480kts
15-Sep-17 15:50 44.313327 -112.278340 345 41026ft 479kts
15-Sep-17 15:51 44.421323 -112.309460 345 41025ft 479kts
15-Sep-17 15:52 44.550334 -112.346802 345 41026ft 479kts
15-Sep-17 15:53 44.679463 -112.384348 345 41126ft 479kts
15-Sep-17 15:54 44.808607 -112.422083 345 41128ft 479kts
15-Sep-17 15:55 44.937921 -112.460019 345 41128ft 477kts
15-Sep-17 15:56 45.060529 -112.496140 345 41121ft 448kts
15-Sep-17 15:57 45.178272 -112.531006 345 41125ft 448kts
15-Sep-17 15:58 45.300817 -112.525751 18 39634ft 457kts
15-Sep-17 15:59 45.419465 -112.469059 18 38071ft 458kts
15-Sep-17 16:00 45.539236 -112.411794 18 36471ft 459kts
15-Sep-17 16:01 45.658394 -112.353913 19 34855ft 463kts
15-Sep-17 16:02 45.779136 -112.295141 19 33216ft 467kts
15-Sep-17 16:03 45.901906 -112.235062 20 31545ft 477kts
15-Sep-17 16:04 46.026830 -112.173945 20 29788ft 480kts
15-Sep-17 16:05 46.147031 -112.116543 19 27928ft 459kts
15-Sep-17 16:06 46.263837 -112.059645 19 25958ft 442kts
15-Sep-17 16:07 46.377195 -112.003720 20 24202ft 428kts
15-Sep-17 16:08 46.489903 -111.947841 20 24213ft 431kts
15-Sep-17 16:09 46.601902 -111.891589 20 23807ft 435kts
15-Sep-17 16:10 46.713157 -111.835203 20 21947ft 412kts
15-Sep-17 16:11 46.818081 -111.782740 20 19677ft 389kts
15-Sep-17 16:12 46.916239 -111.734154 21 16489ft 365kts
15-Sep-17 16:13 47.007874 -111.687635 23 13499ft 339kts
15-Sep-17 16:14 47.092801 -111.644200 12 10658ft 317kts
15-Sep-17 16:15 47.169449 -111.638185 5 9668ft 264kts
15-Sep-17 16:16 47.239324 -111.636595 5 8957ft 249kts
15-Sep-17 16:17 47.301287 -111.635848 3 8306ft 198kts
15-Sep-17 16:18 47.345349 -111.619711 60 7553ft 161kts
15-Sep-17 16:19 47.360389 -111.569356 71 6467ft 129kts
15-Sep-17 16:20 47.375041 -111.523536 44 6012ft 126kts
15-Sep-17 16:21 47.399583 -111.486970 44 5599ft 125kts
15-Sep-17 16:22 47.423352 -111.451861 43 4951ft 122kts
15-Sep-17 16:23 47.447290 -111.416498 42 4315ft 122kts
15-Sep-17 16:24 47.471149 -111.381225 42 3710ft 121kts
15-Sep-17 16:25 47.485866 -111.359475 44 3671ft 18kts
15-Sep-17 16:26 47.488905 -111.354994 43 3661ft 18kts
15-Sep-17 16:27 47.487920 -111.353540 224 3658ft 6kts
15-Sep-17 16:28 47.485845 -111.355240 204 3667ft 1kts

Navigation Log

Ident Type
Flight plan parsing failed, navigation log unavailable